sensor_id;sensor_type;location;lat;lon;timestamp;P1;durP1;ratioP1;P2;durP2;ratioP2
11283;SDS011;5698;47.332;11.180;2023-02-16T00:01:33;1.60;;;1.50;;
11283;SDS011;5698;47.332;11.180;2023-02-16T00:04:01;2.67;;;1.70;;
11283;SDS011;5698;47.332;11.180;2023-02-16T00:06:37;1.73;;;1.37;;
11283;SDS011;5698;47.332;11.180;2023-02-16T00:09:04;2.00;;;1.80;;
11283;SDS011;5698;47.332;11.180;2023-02-16T00:11:33;1.60;;;1.30;;
11283;SDS011;5698;47.332;11.180;2023-02-16T00:14:18;1.53;;;1.40;;
11283;SDS011;5698;47.332;11.180;2023-02-16T00:16:47;2.43;;;1.53;;
11283;SDS011;5698;47.332;11.180;2023-02-16T00:19:15;1.70;;;1.30;;
11283;SDS011;5698;47.332;11.180;2023-02-16T00:21:44;2.80;;;1.50;;
11283;SDS011;5698;47.332;11.180;2023-02-16T00:24:11;2.23;;;1.63;;
11283;SDS011;5698;47.332;11.180;2023-02-16T00:26:40;3.43;;;1.60;;
11283;SDS011;5698;47.332;11.180;2023-02-16T00:29:09;2.23;;;1.50;;
11283;SDS011;5698;47.332;11.180;2023-02-16T00:31:39;5.30;;;1.67;;
11283;SDS011;5698;47.332;11.180;2023-02-16T00:34:14;2.77;;;1.80;;
11283;SDS011;5698;47.332;11.180;2023-02-16T00:36:53;2.17;;;1.40;;
11283;SDS011;5698;47.332;11.180;2023-02-16T00:39:21;1.67;;;1.40;;
11283;SDS011;5698;47.332;11.180;2023-02-16T00:41:51;1.77;;;1.30;;
11283;SDS011;5698;47.332;11.180;2023-02-16T00:44:20;4.83;;;1.70;;
11283;SDS011;5698;47.332;11.180;2023-02-16T00:46:54;2.00;;;1.47;;
11283;SDS011;5698;47.332;11.180;2023-02-16T00:49:21;1.57;;;1.47;;
11283;SDS011;5698;47.332;11.180;2023-02-16T00:51:48;1.53;;;1.13;;
11283;SDS011;5698;47.332;11.180;2023-02-16T00:54:15;1.43;;;1.33;;
11283;SDS011;5698;47.332;11.180;2023-02-16T00:56:42;1.77;;;1.43;;
11283;SDS011;5698;47.332;11.180;2023-02-16T00:59:13;1.77;;;1.67;;
11283;SDS011;5698;47.332;11.180;2023-02-16T01:01:43;1.20;;;1.10;;
11283;SDS011;5698;47.332;11.180;2023-02-16T01:04:11;3.07;;;1.40;;
11283;SDS011;5698;47.332;11.180;2023-02-16T01:06:44;1.40;;;1.20;;
11283;SDS011;5698;47.332;11.180;2023-02-16T01:09:29;1.60;;;1.00;;
11283;SDS011;5698;47.332;11.180;2023-02-16T01:12:14;1.60;;;1.40;;
11283;SDS011;5698;47.332;11.180;2023-02-16T01:14:45;1.37;;;1.10;;
11283;SDS011;5698;47.332;11.180;2023-02-16T01:17:15;1.30;;;1.10;;
11283;SDS011;5698;47.332;11.180;2023-02-16T01:19:42;2.87;;;1.00;;
11283;SDS011;5698;47.332;11.180;2023-02-16T01:22:09;1.10;;;1.00;;
11283;SDS011;5698;47.332;11.180;2023-02-16T01:24:36;2.87;;;1.30;;
11283;SDS011;5698;47.332;11.180;2023-02-16T01:27:03;1.17;;;0.93;;
11283;SDS011;5698;47.332;11.180;2023-02-16T01:29:30;1.30;;;1.00;;
11283;SDS011;5698;47.332;11.180;2023-02-16T01:31:59;1.57;;;1.00;;
11283;SDS011;5698;47.332;11.180;2023-02-16T01:34:26;1.83;;;1.03;;
11283;SDS011;5698;47.332;11.180;2023-02-16T01:36:53;1.87;;;0.90;;
11283;SDS011;5698;47.332;11.180;2023-02-16T01:39:20;1.10;;;1.00;;
11283;SDS011;5698;47.332;11.180;2023-02-16T01:41:55;1.00;;;0.90;;
11283;SDS011;5698;47.332;11.180;2023-02-16T01:44:32;1.10;;;0.80;;
11283;SDS011;5698;47.332;11.180;2023-02-16T01:47:05;1.17;;;0.80;;
11283;SDS011;5698;47.332;11.180;2023-02-16T01:49:40;1.40;;;1.00;;
11283;SDS011;5698;47.332;11.180;2023-02-16T01:52:10;1.37;;;1.03;;
11283;SDS011;5698;47.332;11.180;2023-02-16T01:54:46;0.80;;;0.80;;
11283;SDS011;5698;47.332;11.180;2023-02-16T01:57:21;2.13;;;0.97;;
11283;SDS011;5698;47.332;11.180;2023-02-16T02:00:01;1.07;;;0.80;;
11283;SDS011;5698;47.332;11.180;2023-02-16T02:02:35;1.17;;;0.97;;
11283;SDS011;5698;47.332;11.180;2023-02-16T02:05:06;3.47;;;0.97;;
11283;SDS011;5698;47.332;11.180;2023-02-16T02:07:58;1.00;;;0.90;;
11283;SDS011;5698;47.332;11.180;2023-02-16T02:10:33;0.70;;;0.70;;
11283;SDS011;5698;47.332;11.180;2023-02-16T02:13:10;1.00;;;0.90;;
11283;SDS011;5698;47.332;11.180;2023-02-16T02:15:43;3.33;;;0.93;;
11283;SDS011;5698;47.332;11.180;2023-02-16T02:18:11;0.80;;;0.77;;
11283;SDS011;5698;47.332;11.180;2023-02-16T02:20:41;1.10;;;1.00;;
11283;SDS011;5698;47.332;11.180;2023-02-16T02:23:42;1.00;;;0.90;;
11283;SDS011;5698;47.332;11.180;2023-02-16T02:29:39;1.57;;;1.00;;
11283;SDS011;5698;47.332;11.180;2023-02-16T02:32:22;1.10;;;0.83;;
11283;SDS011;5698;47.332;11.180;2023-02-16T02:35:03;1.20;;;1.10;;
11283;SDS011;5698;47.332;11.180;2023-02-16T02:37:40;1.20;;;0.80;;
11283;SDS011;5698;47.332;11.180;2023-02-16T02:40:14;1.13;;;1.00;;
11283;SDS011;5698;47.332;11.180;2023-02-16T02:42:50;0.97;;;0.80;;
11283;SDS011;5698;47.332;11.180;2023-02-16T02:45:33;1.43;;;0.73;;
11283;SDS011;5698;47.332;11.180;2023-02-16T02:48:03;0.77;;;0.60;;
11283;SDS011;5698;47.332;11.180;2023-02-16T02:50:37;0.93;;;0.90;;
11283;SDS011;5698;47.332;11.180;2023-02-16T02:53:32;0.87;;;0.83;;
11283;SDS011;5698;47.332;11.180;2023-02-16T02:56:02;1.20;;;0.80;;
11283;SDS011;5698;47.332;11.180;2023-02-16T02:58:49;0.97;;;0.70;;
11283;SDS011;5698;47.332;11.180;2023-02-16T03:01:41;0.80;;;0.80;;
11283;SDS011;5698;47.332;11.180;2023-02-16T03:04:13;1.80;;;1.00;;
11283;SDS011;5698;47.332;11.180;2023-02-16T03:06:45;0.90;;;0.90;;
11283;SDS011;5698;47.332;11.180;2023-02-16T03:09:15;1.03;;;0.80;;
11283;SDS011;5698;47.332;11.180;2023-02-16T03:11:43;1.33;;;0.90;;
11283;SDS011;5698;47.332;11.180;2023-02-16T03:14:29;1.00;;;0.90;;
11283;SDS011;5698;47.332;11.180;2023-02-16T03:17:01;0.87;;;0.70;;
11283;SDS011;5698;47.332;11.180;2023-02-16T03:19:49;0.80;;;0.80;;
11283;SDS011;5698;47.332;11.180;2023-02-16T03:22:34;0.80;;;0.80;;
11283;SDS011;5698;47.332;11.180;2023-02-16T03:25:20;1.67;;;1.00;;
11283;SDS011;5698;47.332;11.180;2023-02-16T03:28:06;0.90;;;0.70;;
11283;SDS011;5698;47.332;11.180;2023-02-16T03:30:53;1.07;;;0.90;;
11283;SDS011;5698;47.332;11.180;2023-02-16T03:33:22;1.23;;;0.80;;
11283;SDS011;5698;47.332;11.180;2023-02-16T03:35:50;0.87;;;0.80;;
11283;SDS011;5698;47.332;11.180;2023-02-16T03:38:19;1.90;;;0.90;;
11283;SDS011;5698;47.332;11.180;2023-02-16T03:40:47;0.90;;;0.90;;
11283;SDS011;5698;47.332;11.180;2023-02-16T03:43:15;0.93;;;0.80;;
11283;SDS011;5698;47.332;11.180;2023-02-16T03:45:43;1.00;;;0.80;;
11283;SDS011;5698;47.332;11.180;2023-02-16T03:48:10;1.30;;;0.90;;
11283;SDS011;5698;47.332;11.180;2023-02-16T03:50:39;0.60;;;0.60;;
11283;SDS011;5698;47.332;11.180;2023-02-16T03:53:06;0.80;;;0.80;;
11283;SDS011;5698;47.332;11.180;2023-02-16T03:55:34;1.27;;;1.10;;
11283;SDS011;5698;47.332;11.180;2023-02-16T03:58:03;0.70;;;0.67;;
11283;SDS011;5698;47.332;11.180;2023-02-16T04:00:31;0.90;;;0.60;;
11283;SDS011;5698;47.332;11.180;2023-02-16T04:02:58;0.60;;;0.60;;
11283;SDS011;5698;47.332;11.180;2023-02-16T04:05:25;0.90;;;0.83;;
11283;SDS011;5698;47.332;11.180;2023-02-16T04:07:54;0.60;;;0.60;;
11283;SDS011;5698;47.332;11.180;2023-02-16T04:10:22;1.93;;;0.80;;
11283;SDS011;5698;47.332;11.180;2023-02-16T04:12:50;1.50;;;0.90;;
11283;SDS011;5698;47.332;11.180;2023-02-16T04:15:17;0.73;;;0.70;;
11283;SDS011;5698;47.332;11.180;2023-02-16T04:17:46;0.70;;;0.70;;
11283;SDS011;5698;47.332;11.180;2023-02-16T04:20:14;1.13;;;0.93;;
11283;SDS011;5698;47.332;11.180;2023-02-16T04:22:43;1.03;;;0.90;;
11283;SDS011;5698;47.332;11.180;2023-02-16T04:25:11;0.90;;;0.77;;
11283;SDS011;5698;47.332;11.180;2023-02-16T04:27:39;0.70;;;0.60;;
11283;SDS011;5698;47.332;11.180;2023-02-16T04:30:08;1.67;;;0.60;;
11283;SDS011;5698;47.332;11.180;2023-02-16T04:32:36;0.90;;;0.80;;
11283;SDS011;5698;47.332;11.180;2023-02-16T04:35:04;0.87;;;0.70;;
11283;SDS011;5698;47.332;11.180;2023-02-16T04:37:31;0.90;;;0.80;;
11283;SDS011;5698;47.332;11.180;2023-02-16T04:39:59;1.03;;;0.70;;
11283;SDS011;5698;47.332;11.180;2023-02-16T04:42:27;0.80;;;0.80;;
11283;SDS011;5698;47.332;11.180;2023-02-16T04:44:54;0.80;;;0.80;;
11283;SDS011;5698;47.332;11.180;2023-02-16T04:47:21;2.00;;;0.90;;
11283;SDS011;5698;47.332;11.180;2023-02-16T04:49:50;0.70;;;0.70;;
11283;SDS011;5698;47.332;11.180;2023-02-16T04:52:17;0.90;;;0.70;;
11283;SDS011;5698;47.332;11.180;2023-02-16T04:54:45;0.60;;;0.60;;
11283;SDS011;5698;47.332;11.180;2023-02-16T04:57:12;1.00;;;0.70;;
11283;SDS011;5698;47.332;11.180;2023-02-16T04:59:41;0.60;;;0.60;;
11283;SDS011;5698;47.332;11.180;2023-02-16T05:02:08;0.80;;;0.70;;
11283;SDS011;5698;47.332;11.180;2023-02-16T05:04:35;2.30;;;0.73;;
11283;SDS011;5698;47.332;11.180;2023-02-16T05:07:02;0.70;;;0.70;;
11283;SDS011;5698;47.332;11.180;2023-02-16T05:09:29;0.90;;;0.80;;
11283;SDS011;5698;47.332;11.180;2023-02-16T05:11:56;1.00;;;0.80;;
11283;SDS011;5698;47.332;11.180;2023-02-16T05:14:42;0.60;;;0.60;;
11283;SDS011;5698;47.332;11.180;2023-02-16T05:17:10;3.43;;;0.80;;
11283;SDS011;5698;47.332;11.180;2023-02-16T05:19:39;0.93;;;0.70;;
11283;SDS011;5698;47.332;11.180;2023-02-16T05:22:08;0.87;;;0.77;;
11283;SDS011;5698;47.332;11.180;2023-02-16T05:24:36;1.03;;;0.80;;
11283;SDS011;5698;47.332;11.180;2023-02-16T05:27:04;1.03;;;0.70;;
11283;SDS011;5698;47.332;11.180;2023-02-16T05:29:32;0.87;;;0.73;;
11283;SDS011;5698;47.332;11.180;2023-02-16T05:32:01;7.43;;;3.50;;
11283;SDS011;5698;47.332;11.180;2023-02-16T05:34:28;3.07;;;1.90;;
11283;SDS011;5698;47.332;11.180;2023-02-16T05:36:55;1.23;;;1.00;;
11283;SDS011;5698;47.332;11.180;2023-02-16T05:39:22;1.10;;;0.70;;
11283;SDS011;5698;47.332;11.180;2023-02-16T05:41:49;0.87;;;0.80;;
11283;SDS011;5698;47.332;11.180;2023-02-16T05:44:16;1.13;;;0.70;;
11283;SDS011;5698;47.332;11.180;2023-02-16T05:46:44;1.00;;;0.90;;
11283;SDS011;5698;47.332;11.180;2023-02-16T05:49:13;0.50;;;0.50;;
11283;SDS011;5698;47.332;11.180;2023-02-16T05:51:41;1.00;;;0.70;;
11283;SDS011;5698;47.332;11.180;2023-02-16T05:54:08;2.07;;;0.60;;
11283;SDS011;5698;47.332;11.180;2023-02-16T05:56:41;0.80;;;0.70;;
11283;SDS011;5698;47.332;11.180;2023-02-16T05:59:09;0.80;;;0.80;;
11283;SDS011;5698;47.332;11.180;2023-02-16T06:01:36;0.60;;;0.60;;
11283;SDS011;5698;47.332;11.180;2023-02-16T06:04:05;0.80;;;0.80;;
11283;SDS011;5698;47.332;11.180;2023-02-16T06:06:34;1.77;;;0.80;;
11283;SDS011;5698;47.332;11.180;2023-02-16T06:09:02;0.83;;;0.80;;
11283;SDS011;5698;47.332;11.180;2023-02-16T06:11:29;0.80;;;0.63;;
11283;SDS011;5698;47.332;11.180;2023-02-16T06:14:03;0.70;;;0.70;;
11283;SDS011;5698;47.332;11.180;2023-02-16T06:16:32;1.80;;;1.00;;
11283;SDS011;5698;47.332;11.180;2023-02-16T06:19:03;1.40;;;0.90;;
11283;SDS011;5698;47.332;11.180;2023-02-16T06:21:30;0.70;;;0.70;;
11283;SDS011;5698;47.332;11.180;2023-02-16T06:23:59;1.00;;;0.90;;
11283;SDS011;5698;47.332;11.180;2023-02-16T06:26:26;0.83;;;0.70;;
11283;SDS011;5698;47.332;11.180;2023-02-16T06:28:53;0.70;;;0.70;;
11283;SDS011;5698;47.332;11.180;2023-02-16T06:31:21;1.00;;;0.80;;
11283;SDS011;5698;47.332;11.180;2023-02-16T06:33:49;1.10;;;1.00;;
11283;SDS011;5698;47.332;11.180;2023-02-16T06:36:16;1.80;;;0.73;;
11283;SDS011;5698;47.332;11.180;2023-02-16T06:38:44;1.20;;;0.83;;
11283;SDS011;5698;47.332;11.180;2023-02-16T06:41:13;0.60;;;0.60;;
11283;SDS011;5698;47.332;11.180;2023-02-16T06:43:55;0.80;;;0.80;;
11283;SDS011;5698;47.332;11.180;2023-02-16T06:46:23;0.80;;;0.73;;
11283;SDS011;5698;47.332;11.180;2023-02-16T06:48:50;1.73;;;0.80;;
11283;SDS011;5698;47.332;11.180;2023-02-16T06:51:18;1.27;;;0.70;;
11283;SDS011;5698;47.332;11.180;2023-02-16T06:53:45;0.50;;;0.50;;
11283;SDS011;5698;47.332;11.180;2023-02-16T06:56:14;0.87;;;0.80;;
11283;SDS011;5698;47.332;11.180;2023-02-16T06:58:41;1.10;;;0.80;;
11283;SDS011;5698;47.332;11.180;2023-02-16T07:01:08;0.70;;;0.70;;
11283;SDS011;5698;47.332;11.180;2023-02-16T07:03:35;0.80;;;0.60;;
11283;SDS011;5698;47.332;11.180;2023-02-16T07:06:03;0.87;;;0.63;;
11283;SDS011;5698;47.332;11.180;2023-02-16T07:08:30;1.10;;;0.67;;
11283;SDS011;5698;47.332;11.180;2023-02-16T07:10:57;1.17;;;0.60;;
11283;SDS011;5698;47.332;11.180;2023-02-16T07:13:26;1.83;;;0.70;;
11283;SDS011;5698;47.332;11.180;2023-02-16T07:15:53;0.70;;;0.70;;
11283;SDS011;5698;47.332;11.180;2023-02-16T07:18:20;1.00;;;0.87;;
11283;SDS011;5698;47.332;11.180;2023-02-16T07:20:47;1.60;;;0.70;;
11283;SDS011;5698;47.332;11.180;2023-02-16T07:23:14;0.90;;;0.70;;
11283;SDS011;5698;47.332;11.180;2023-02-16T07:25:41;0.63;;;0.63;;
11283;SDS011;5698;47.332;11.180;2023-02-16T07:28:08;1.73;;;0.97;;
11283;SDS011;5698;47.332;11.180;2023-02-16T07:30:37;0.90;;;0.80;;
11283;SDS011;5698;47.332;11.180;2023-02-16T07:33:04;0.63;;;0.63;;
11283;SDS011;5698;47.332;11.180;2023-02-16T07:35:31;0.60;;;0.60;;
11283;SDS011;5698;47.332;11.180;2023-02-16T07:37:58;0.70;;;0.70;;
11283;SDS011;5698;47.332;11.180;2023-02-16T07:40:25;0.70;;;0.63;;
11283;SDS011;5698;47.332;11.180;2023-02-16T07:42:52;1.30;;;0.90;;
11283;SDS011;5698;47.332;11.180;2023-02-16T07:45:20;0.67;;;0.67;;
11283;SDS011;5698;47.332;11.180;2023-02-16T07:47:48;0.70;;;0.70;;
11283;SDS011;5698;47.332;11.180;2023-02-16T07:50:15;1.60;;;0.67;;
11283;SDS011;5698;47.332;11.180;2023-02-16T07:52:42;0.80;;;0.70;;
11283;SDS011;5698;47.332;11.180;2023-02-16T07:55:09;0.80;;;0.80;;
11283;SDS011;5698;47.332;11.180;2023-02-16T07:57:37;0.77;;;0.63;;
11283;SDS011;5698;47.332;11.180;2023-02-16T08:00:05;1.07;;;0.83;;
11283;SDS011;5698;47.332;11.180;2023-02-16T08:02:33;0.73;;;0.73;;
11283;SDS011;5698;47.332;11.180;2023-02-16T08:05:02;0.97;;;0.80;;
11283;SDS011;5698;47.332;11.180;2023-02-16T08:07:29;1.60;;;0.87;;
11283;SDS011;5698;47.332;11.180;2023-02-16T08:09:56;1.00;;;0.90;;
11283;SDS011;5698;47.332;11.180;2023-02-16T08:12:24;1.03;;;0.80;;
11283;SDS011;5698;47.332;11.180;2023-02-16T08:14:52;0.70;;;0.70;;
11283;SDS011;5698;47.332;11.180;2023-02-16T08:17:19;0.70;;;0.70;;
11283;SDS011;5698;47.332;11.180;2023-02-16T08:19:46;1.23;;;0.70;;
11283;SDS011;5698;47.332;11.180;2023-02-16T08:22:15;2.13;;;0.70;;
11283;SDS011;5698;47.332;11.180;2023-02-16T08:24:43;1.43;;;0.50;;
11283;SDS011;5698;47.332;11.180;2023-02-16T08:27:10;2.00;;;0.93;;
11283;SDS011;5698;47.332;11.180;2023-02-16T08:29:37;1.00;;;0.90;;
11283;SDS011;5698;47.332;11.180;2023-02-16T08:32:05;1.00;;;0.80;;
11283;SDS011;5698;47.332;11.180;2023-02-16T08:34:34;1.00;;;0.60;;
11283;SDS011;5698;47.332;11.180;2023-02-16T08:37:02;0.80;;;0.80;;
11283;SDS011;5698;47.332;11.180;2023-02-16T08:39:31;0.77;;;0.70;;
11283;SDS011;5698;47.332;11.180;2023-02-16T08:41:59;1.70;;;0.90;;
11283;SDS011;5698;47.332;11.180;2023-02-16T08:44:27;1.00;;;0.90;;
11283;SDS011;5698;47.332;11.180;2023-02-16T08:46:55;2.70;;;1.70;;
11283;SDS011;5698;47.332;11.180;2023-02-16T08:49:24;3.50;;;1.50;;
11283;SDS011;5698;47.332;11.180;2023-02-16T08:51:53;2.97;;;1.60;;
11283;SDS011;5698;47.332;11.180;2023-02-16T08:54:22;3.73;;;2.50;;
11283;SDS011;5698;47.332;11.180;2023-02-16T08:56:53;4.43;;;2.70;;
11283;SDS011;5698;47.332;11.180;2023-02-16T08:59:21;7.90;;;3.30;;
11283;SDS011;5698;47.332;11.180;2023-02-16T09:01:49;7.63;;;2.50;;
11283;SDS011;5698;47.332;11.180;2023-02-16T09:04:17;3.20;;;2.00;;
11283;SDS011;5698;47.332;11.180;2023-02-16T09:06:45;2.30;;;1.77;;
11283;SDS011;5698;47.332;11.180;2023-02-16T09:09:13;2.30;;;1.83;;
11283;SDS011;5698;47.332;11.180;2023-02-16T09:11:41;3.13;;;1.40;;
11283;SDS011;5698;47.332;11.180;2023-02-16T09:14:09;1.60;;;1.43;;
11283;SDS011;5698;47.332;11.180;2023-02-16T09:16:36;1.77;;;1.37;;
11283;SDS011;5698;47.332;11.180;2023-02-16T09:19:09;3.33;;;1.60;;
11283;SDS011;5698;47.332;11.180;2023-02-16T09:21:38;1.53;;;1.33;;
11283;SDS011;5698;47.332;11.180;2023-02-16T09:24:06;1.93;;;1.30;;
11283;SDS011;5698;47.332;11.180;2023-02-16T09:26:35;1.67;;;1.03;;
11283;SDS011;5698;47.332;11.180;2023-02-16T09:29:06;1.90;;;1.10;;
11283;SDS011;5698;47.332;11.180;2023-02-16T09:31:35;1.67;;;1.33;;
11283;SDS011;5698;47.332;11.180;2023-02-16T09:34:04;1.33;;;1.20;;
11283;SDS011;5698;47.332;11.180;2023-02-16T09:36:33;1.20;;;1.10;;
11283;SDS011;5698;47.332;11.180;2023-02-16T09:39:01;1.87;;;1.17;;
11283;SDS011;5698;47.332;11.180;2023-02-16T09:41:30;0.97;;;0.80;;
11283;SDS011;5698;47.332;11.180;2023-02-16T09:44:04;1.60;;;1.00;;
11283;SDS011;5698;47.332;11.180;2023-02-16T09:46:40;1.37;;;0.80;;
11283;SDS011;5698;47.332;11.180;2023-02-16T09:49:08;0.77;;;0.70;;
11283;SDS011;5698;47.332;11.180;2023-02-16T09:51:47;3.00;;;1.33;;
11283;SDS011;5698;47.332;11.180;2023-02-16T09:54:22;1.20;;;0.70;;
11283;SDS011;5698;47.332;11.180;2023-02-16T09:57:00;1.50;;;0.90;;
11283;SDS011;5698;47.332;11.180;2023-02-16T09:59:40;1.63;;;0.60;;
11283;SDS011;5698;47.332;11.180;2023-02-16T10:02:21;1.67;;;0.60;;
11283;SDS011;5698;47.332;11.180;2023-02-16T10:05:14;1.13;;;0.47;;
11283;SDS011;5698;47.332;11.180;2023-02-16T10:07:48;5.50;;;1.00;;
11283;SDS011;5698;47.332;11.180;2023-02-16T10:10:23;6.50;;;1.27;;
11283;SDS011;5698;47.332;11.180;2023-02-16T10:12:57;5.47;;;1.23;;
11283;SDS011;5698;47.332;11.180;2023-02-16T10:15:29;9.73;;;1.27;;
11283;SDS011;5698;47.332;11.180;2023-02-16T10:18:00;3.73;;;1.00;;
11283;SDS011;5698;47.332;11.180;2023-02-16T10:20:34;3.53;;;0.60;;
11283;SDS011;5698;47.332;11.180;2023-02-16T10:23:06;7.90;;;1.40;;
11283;SDS011;5698;47.332;11.180;2023-02-16T10:25:44;4.13;;;1.27;;
11283;SDS011;5698;47.332;11.180;2023-02-16T10:28:19;3.43;;;1.20;;
11283;SDS011;5698;47.332;11.180;2023-02-16T10:30:52;6.73;;;1.60;;
11283;SDS011;5698;47.332;11.180;2023-02-16T10:33:31;2.47;;;1.50;;
11283;SDS011;5698;47.332;11.180;2023-02-16T10:36:08;6.63;;;1.40;;
11283;SDS011;5698;47.332;11.180;2023-02-16T10:38:42;3.17;;;1.50;;
11283;SDS011;5698;47.332;11.180;2023-02-16T10:41:17;5.13;;;1.60;;
11283;SDS011;5698;47.332;11.180;2023-02-16T10:43:56;1.50;;;0.90;;
11283;SDS011;5698;47.332;11.180;2023-02-16T10:46:29;5.10;;;1.47;;
11283;SDS011;5698;47.332;11.180;2023-02-16T10:49:00;1.80;;;1.10;;
11283;SDS011;5698;47.332;11.180;2023-02-16T10:51:30;5.53;;;1.30;;
11283;SDS011;5698;47.332;11.180;2023-02-16T10:54:02;2.27;;;1.67;;
11283;SDS011;5698;47.332;11.180;2023-02-16T10:56:40;2.00;;;1.47;;
11283;SDS011;5698;47.332;11.180;2023-02-16T10:59:15;1.67;;;1.13;;
11283;SDS011;5698;47.332;11.180;2023-02-16T11:01:44;2.73;;;1.00;;
11283;SDS011;5698;47.332;11.180;2023-02-16T11:07:14;3.80;;;1.47;;
11283;SDS011;5698;47.332;11.180;2023-02-16T11:09:43;6.43;;;1.40;;
11283;SDS011;5698;47.332;11.180;2023-02-16T11:12:16;6.97;;;1.50;;
11283;SDS011;5698;47.332;11.180;2023-02-16T11:14:53;3.77;;;1.50;;
11283;SDS011;5698;47.332;11.180;2023-02-16T11:17:22;4.53;;;1.70;;
11283;SDS011;5698;47.332;11.180;2023-02-16T11:19:52;1.73;;;1.20;;
11283;SDS011;5698;47.332;11.180;2023-02-16T11:22:25;3.03;;;1.20;;
11283;SDS011;5698;47.332;11.180;2023-02-16T11:24:54;2.10;;;1.30;;
11283;SDS011;5698;47.332;11.180;2023-02-16T11:27:23;2.50;;;1.30;;
11283;SDS011;5698;47.332;11.180;2023-02-16T11:29:50;3.17;;;1.40;;
11283;SDS011;5698;47.332;11.180;2023-02-16T11:32:46;1.83;;;1.30;;
11283;SDS011;5698;47.332;11.180;2023-02-16T11:35:15;3.93;;;1.30;;
11283;SDS011;5698;47.332;11.180;2023-02-16T11:37:43;1.60;;;1.30;;
11283;SDS011;5698;47.332;11.180;2023-02-16T11:40:17;3.03;;;1.30;;
11283;SDS011;5698;47.332;11.180;2023-02-16T11:42:47;1.27;;;1.03;;
11283;SDS011;5698;47.332;11.180;2023-02-16T11:45:21;3.53;;;1.40;;
11283;SDS011;5698;47.332;11.180;2023-02-16T11:47:52;1.83;;;1.20;;
11283;SDS011;5698;47.332;11.180;2023-02-16T11:50:23;3.67;;;1.33;;
11283;SDS011;5698;47.332;11.180;2023-02-16T11:52:53;1.20;;;1.07;;
11283;SDS011;5698;47.332;11.180;2023-02-16T11:55:23;1.67;;;1.00;;
11283;SDS011;5698;47.332;11.180;2023-02-16T11:57:52;3.70;;;1.27;;
11283;SDS011;5698;47.332;11.180;2023-02-16T12:00:22;3.70;;;1.60;;
11283;SDS011;5698;47.332;11.180;2023-02-16T12:03:05;5.63;;;1.40;;
11283;SDS011;5698;47.332;11.180;2023-02-16T12:05:46;2.00;;;1.50;;
11283;SDS011;5698;47.332;11.180;2023-02-16T12:08:32;2.93;;;1.73;;
11283;SDS011;5698;47.332;11.180;2023-02-16T12:11:14;1.80;;;1.33;;
11283;SDS011;5698;47.332;11.180;2023-02-16T12:13:50;3.40;;;1.60;;
11283;SDS011;5698;47.332;11.180;2023-02-16T12:16:29;3.07;;;1.60;;
11283;SDS011;5698;47.332;11.180;2023-02-16T12:19:12;2.83;;;1.40;;
11283;SDS011;5698;47.332;11.180;2023-02-16T12:21:49;3.00;;;1.10;;
11283;SDS011;5698;47.332;11.180;2023-02-16T12:24:24;1.57;;;1.20;;
11283;SDS011;5698;47.332;11.180;2023-02-16T12:27:01;4.47;;;1.80;;
11283;SDS011;5698;47.332;11.180;2023-02-16T12:29:36;2.23;;;1.80;;
11283;SDS011;5698;47.332;11.180;2023-02-16T12:32:28;2.40;;;1.57;;
11283;SDS011;5698;47.332;11.180;2023-02-16T12:35:11;1.77;;;1.40;;
11283;SDS011;5698;47.332;11.180;2023-02-16T12:37:51;1.63;;;1.40;;
11283;SDS011;5698;47.332;11.180;2023-02-16T12:40:30;1.80;;;1.47;;
11283;SDS011;5698;47.332;11.180;2023-02-16T12:43:10;2.47;;;1.20;;
11283;SDS011;5698;47.332;11.180;2023-02-16T12:45:54;1.53;;;1.00;;
11283;SDS011;5698;47.332;11.180;2023-02-16T12:48:26;1.50;;;0.93;;
11283;SDS011;5698;47.332;11.180;2023-02-16T12:51:02;1.83;;;0.67;;
11283;SDS011;5698;47.332;11.180;2023-02-16T12:53:37;1.10;;;0.87;;
11283;SDS011;5698;47.332;11.180;2023-02-16T12:56:11;1.07;;;0.80;;
11283;SDS011;5698;47.332;11.180;2023-02-16T12:58:43;2.23;;;0.77;;
11283;SDS011;5698;47.332;11.180;2023-02-16T13:01:15;0.50;;;0.50;;
11283;SDS011;5698;47.332;11.180;2023-02-16T13:03:49;1.20;;;0.90;;
11283;SDS011;5698;47.332;11.180;2023-02-16T13:06:21;0.73;;;0.70;;
11283;SDS011;5698;47.332;11.180;2023-02-16T13:08:56;0.93;;;0.70;;
11283;SDS011;5698;47.332;11.180;2023-02-16T13:11:32;0.97;;;0.87;;
11283;SDS011;5698;47.332;11.180;2023-02-16T13:14:04;1.03;;;0.70;;
11283;SDS011;5698;47.332;11.180;2023-02-16T13:16:38;0.60;;;0.60;;
11283;SDS011;5698;47.332;11.180;2023-02-16T13:19:09;0.80;;;0.80;;
11283;SDS011;5698;47.332;11.180;2023-02-16T13:21:41;1.20;;;0.80;;
11283;SDS011;5698;47.332;11.180;2023-02-16T13:24:41;1.37;;;1.00;;
11283;SDS011;5698;47.332;11.180;2023-02-16T13:27:18;0.93;;;0.83;;
11283;SDS011;5698;47.332;11.180;2023-02-16T13:30:08;1.30;;;0.90;;
11283;SDS011;5698;47.332;11.180;2023-02-16T13:33:08;2.63;;;1.03;;
11283;SDS011;5698;47.332;11.180;2023-02-16T13:35:55;2.77;;;1.10;;
11283;SDS011;5698;47.332;11.180;2023-02-16T13:38:59;1.13;;;0.83;;
11283;SDS011;5698;47.332;11.180;2023-02-16T13:41:52;1.10;;;1.00;;
11283;SDS011;5698;47.332;11.180;2023-02-16T13:44:33;1.17;;;0.90;;
11283;SDS011;5698;47.332;11.180;2023-02-16T13:47:03;2.23;;;1.00;;
11283;SDS011;5698;47.332;11.180;2023-02-16T13:49:32;1.27;;;1.00;;
11283;SDS011;5698;47.332;11.180;2023-02-16T13:52:02;1.10;;;1.00;;
11283;SDS011;5698;47.332;11.180;2023-02-16T13:54:32;1.00;;;0.90;;
11283;SDS011;5698;47.332;11.180;2023-02-16T13:57:02;1.10;;;1.00;;
11283;SDS011;5698;47.332;11.180;2023-02-16T14:05:29;2.03;;;1.20;;
11283;SDS011;5698;47.332;11.180;2023-02-16T14:08:09;1.33;;;1.03;;
11283;SDS011;5698;47.332;11.180;2023-02-16T14:10:54;1.37;;;1.20;;
11283;SDS011;5698;47.332;11.180;2023-02-16T14:13:43;1.83;;;1.27;;
11283;SDS011;5698;47.332;11.180;2023-02-16T14:16:24;1.87;;;1.10;;
11283;SDS011;5698;47.332;11.180;2023-02-16T14:18:57;1.17;;;1.07;;
11283;SDS011;5698;47.332;11.180;2023-02-16T14:21:27;1.67;;;1.23;;
11283;SDS011;5698;47.332;11.180;2023-02-16T14:24:01;2.13;;;0.97;;
11283;SDS011;5698;47.332;11.180;2023-02-16T14:26:34;1.50;;;1.10;;
11283;SDS011;5698;47.332;11.180;2023-02-16T14:29:18;1.60;;;1.30;;
11283;SDS011;5698;47.332;11.180;2023-02-16T14:31:49;1.43;;;1.13;;
11283;SDS011;5698;47.332;11.180;2023-02-16T14:34:21;1.70;;;1.30;;
11283;SDS011;5698;47.332;11.180;2023-02-16T14:37:09;3.23;;;2.37;;
11283;SDS011;5698;47.332;11.180;2023-02-16T14:39:55;1.53;;;1.27;;
11283;SDS011;5698;47.332;11.180;2023-02-16T14:42:30;1.60;;;1.50;;
11283;SDS011;5698;47.332;11.180;2023-02-16T14:45:06;1.60;;;1.50;;
11283;SDS011;5698;47.332;11.180;2023-02-16T14:47:45;2.30;;;1.67;;
11283;SDS011;5698;47.332;11.180;2023-02-16T14:50:25;1.40;;;1.30;;
11283;SDS011;5698;47.332;11.180;2023-02-16T14:56:20;1.90;;;1.60;;
11283;SDS011;5698;47.332;11.180;2023-02-16T14:59:04;2.10;;;1.00;;
11283;SDS011;5698;47.332;11.180;2023-02-16T15:01:42;2.03;;;1.43;;
11283;SDS011;5698;47.332;11.180;2023-02-16T15:04:11;1.20;;;1.10;;
11283;SDS011;5698;47.332;11.180;2023-02-16T15:06:38;1.20;;;1.10;;
11283;SDS011;5698;47.332;11.180;2023-02-16T15:09:12;3.83;;;1.30;;
11283;SDS011;5698;47.332;11.180;2023-02-16T15:11:43;1.43;;;1.20;;
11283;SDS011;5698;47.332;11.180;2023-02-16T15:14:34;2.07;;;1.57;;
11283;SDS011;5698;47.332;11.180;2023-02-16T15:17:08;2.40;;;1.13;;
11283;SDS011;5698;47.332;11.180;2023-02-16T15:19:40;1.20;;;1.10;;
11283;SDS011;5698;47.332;11.180;2023-02-16T15:22:08;1.43;;;1.10;;
11283;SDS011;5698;47.332;11.180;2023-02-16T15:24:42;1.47;;;1.20;;
11283;SDS011;5698;47.332;11.180;2023-02-16T15:27:19;1.73;;;1.30;;
11283;SDS011;5698;47.332;11.180;2023-02-16T15:30:00;1.47;;;1.13;;
11283;SDS011;5698;47.332;11.180;2023-02-16T15:32:31;1.60;;;1.50;;
11283;SDS011;5698;47.332;11.180;2023-02-16T15:35:07;2.50;;;1.53;;